Waterloo Airport
CYKF : now visible

Aeroporto :











RITROVATECI SU...

 
LOGIN :

Iscrizione | Disclaimer

   EN    FR    IT 

 









Sommario :    VFR   VFR Marginale   IFR   IFR Intensivo   IFR Molto Intensivo
Visibilità : 
Base nubi : 
>= 8 km
>= 3000ft
5 / 8 km
1000 / 3000 ft
1500m / 5 km
500 / 1000 ft
800 / 1500m
200 / 500 ft
< 800m
< 200 ft
Simboli :   Temporali  Nebbia  Neve Forte  Precipitazioni Forti  Vento > 20 kt






- Altitudine del aeroporto : 1054 ft
- Codice IATA : YKF


CYKF - Waterloo

ULTIMO METAR :
  • 240300Z AUTO 29010G15KT 9SM SCT038 BKN049 00/M02 A3025 RMK SLP257

METARs OBSOLETI :
  • 240200Z AUTO 28012G17KT 9SM OVC039 01/M03 A3023 RMK SLP251
  • 240100Z AUTO 28014KT 9SM BKN037 01/M02 A3023 RMK SLP249

TAF TAF CYKF
Valido dal 24 a 02 ore il 24 a 14 ore UTC


240138Z 2402/2414 29012KT P6SM BKN030
TEMPO 2402/2409 BKN020
FM240900 33007KT P6SM SCT025
PROB30 2409/2413 3/4SM BR RMK FCST BASED ON AUTO OBS. NXT FCST BY 240800Z
FIR CZYZ / America del Nord



MetMap, La meteo Aeronautica in un colpo d'occhio ! - Copyright ORBIFLY Dicembre 2007 - Disclaimer

ORBIFLY MET'MAP TEAM :

Programmazione e sviluppo : Alexandra Zaïnal
Concezione : Baudouin d'Aumeries
Aiuto per la programmazione : Marc-Olivier Méhu
Supporto tecnico e logistico : Manuel Goepfert
Aiuto per la traduzione : Arnaldo La Scala

Contatto : metmap@orbifly.com




FONTI E CREDITI :

   NOAA       Earth
Advisory